sensor_id;sensor_type;location;lat;lon;timestamp;pressure;altitude;pressure_sealevel;temperature;humidity
46087;BME280;31824;49.648;8.640;2022-11-20T00:02:10;99916.88;;;2.91;100.00
46087;BME280;31824;49.648;8.640;2022-11-20T00:05:13;99921.28;;;2.92;100.00
46087;BME280;31824;49.648;8.640;2022-11-20T00:08:15;99911.13;;;2.86;100.00
46087;BME280;31824;49.648;8.640;2022-11-20T00:11:18;99911.25;;;3.02;100.00
46087;BME280;31824;49.648;8.640;2022-11-20T00:14:20;99908.31;;;2.99;100.00
46087;BME280;31824;49.648;8.640;2022-11-20T00:17:22;99904.28;;;2.87;100.00
46087;BME280;31824;49.648;8.640;2022-11-20T00:20:25;99906.50;;;2.84;100.00
46087;BME280;31824;49.648;8.640;2022-11-20T00:23:27;99899.09;;;2.80;100.00
46087;BME280;31824;49.648;8.640;2022-11-20T00:26:29;99908.91;;;2.82;100.00
46087;BME280;31824;49.648;8.640;2022-11-20T00:29:31;99910.47;;;2.59;100.00
46087;BME280;31824;49.648;8.640;2022-11-20T00:32:33;99901.69;;;2.80;100.00
46087;BME280;31824;49.648;8.640;2022-11-20T00:35:36;99905.34;;;2.96;100.00
46087;BME280;31824;49.648;8.640;2022-11-20T00:38:38;99894.19;;;3.04;100.00
46087;BME280;31824;49.648;8.640;2022-11-20T00:41:40;99909.03;;;2.98;100.00
46087;BME280;31824;49.648;8.640;2022-11-20T00:44:41;99918.81;;;3.08;100.00
46087;BME280;31824;49.648;8.640;2022-11-20T00:47:43;99919.94;;;3.03;100.00
46087;BME280;31824;49.648;8.640;2022-11-20T00:50:46;99922.22;;;2.85;100.00
46087;BME280;31824;49.648;8.640;2022-11-20T00:53:48;99911.78;;;3.07;100.00
46087;BME280;31824;49.648;8.640;2022-11-20T00:56:49;99918.69;;;2.99;100.00
46087;BME280;31824;49.648;8.640;2022-11-20T00:59:51;99920.41;;;2.77;100.00
46087;BME280;31824;49.648;8.640;2022-11-20T01:02:55;99923.06;;;2.63;100.00
46087;BME280;31824;49.648;8.640;2022-11-20T01:06:00;99926.38;;;2.62;100.00
46087;BME280;31824;49.648;8.640;2022-11-20T01:09:04;99926.16;;;2.82;100.00
46087;BME280;31824;49.648;8.640;2022-11-20T01:12:06;99920.97;;;2.82;100.00
46087;BME280;31824;49.648;8.640;2022-11-20T01:15:08;99914.84;;;2.81;100.00
46087;BME280;31824;49.648;8.640;2022-11-20T01:18:10;99915.03;;;2.83;100.00
46087;BME280;31824;49.648;8.640;2022-11-20T01:21:15;99918.16;;;2.87;100.00
46087;BME280;31824;49.648;8.640;2022-11-20T01:24:18;99912.25;;;2.89;100.00
46087;BME280;31824;49.648;8.640;2022-11-20T01:27:20;99909.59;;;2.96;100.00
46087;BME280;31824;49.648;8.640;2022-11-20T01:30:22;99898.31;;;2.95;100.00
46087;BME280;31824;49.648;8.640;2022-11-20T01:33:24;99893.25;;;3.04;100.00
46087;BME280;31824;49.648;8.640;2022-11-20T01:36:29;99897.16;;;3.08;100.00
46087;BME280;31824;49.648;8.640;2022-11-20T01:39:31;99896.19;;;3.14;100.00
46087;BME280;31824;49.648;8.640;2022-11-20T01:42:32;99892.81;;;3.15;100.00
46087;BME280;31824;49.648;8.640;2022-11-20T01:45:58;99888.88;;;3.33;100.00
46087;BME280;31824;49.648;8.640;2022-11-20T01:49:02;99878.19;;;3.16;100.00
46087;BME280;31824;49.648;8.640;2022-11-20T01:52:13;99882.84;;;3.18;100.00
46087;BME280;31824;49.648;8.640;2022-11-20T01:55:19;99878.50;;;3.26;100.00
46087;BME280;31824;49.648;8.640;2022-11-20T01:58:27;99875.16;;;3.27;100.00
46087;BME280;31824;49.648;8.640;2022-11-20T02:01:30;99888.59;;;3.16;100.00
46087;BME280;31824;49.648;8.640;2022-11-20T02:04:31;99887.63;;;3.23;100.00
46087;BME280;31824;49.648;8.640;2022-11-20T02:07:34;99879.69;;;3.14;100.00
46087;BME280;31824;49.648;8.640;2022-11-20T02:10:37;99881.66;;;3.31;100.00
46087;BME280;31824;49.648;8.640;2022-11-20T02:13:39;99889.66;;;3.18;100.00
46087;BME280;31824;49.648;8.640;2022-11-20T02:16:48;99889.66;;;3.25;100.00
46087;BME280;31824;49.648;8.640;2022-11-20T02:19:50;99890.91;;;3.29;100.00
46087;BME280;31824;49.648;8.640;2022-11-20T02:22:57;99892.03;;;3.24;100.00
46087;BME280;31824;49.648;8.640;2022-11-20T02:26:06;99876.53;;;3.16;100.00
46087;BME280;31824;49.648;8.640;2022-11-20T02:29:09;99870.38;;;3.23;100.00
46087;BME280;31824;49.648;8.640;2022-11-20T02:32:18;99884.66;;;3.19;100.00
46087;BME280;31824;49.648;8.640;2022-11-20T02:35:39;99874.66;;;3.23;100.00
46087;BME280;31824;49.648;8.640;2022-11-20T02:38:43;99870.03;;;3.13;100.00
46087;BME280;31824;49.648;8.640;2022-11-20T02:41:46;99874.88;;;3.17;100.00
46087;BME280;31824;49.648;8.640;2022-11-20T02:44:48;99867.59;;;3.21;100.00
46087;BME280;31824;49.648;8.640;2022-11-20T02:47:49;99864.38;;;3.31;100.00
46087;BME280;31824;49.648;8.640;2022-11-20T02:50:51;99868.88;;;3.25;100.00
46087;BME280;31824;49.648;8.640;2022-11-20T02:53:53;99876.69;;;3.18;100.00
46087;BME280;31824;49.648;8.640;2022-11-20T02:56:55;99868.50;;;3.29;100.00
46087;BME280;31824;49.648;8.640;2022-11-20T02:59:57;99864.25;;;3.23;100.00
46087;BME280;31824;49.648;8.640;2022-11-20T03:02:59;99857.97;;;3.20;100.00
46087;BME280;31824;49.648;8.640;2022-11-20T03:06:00;99855.13;;;3.33;100.00
46087;BME280;31824;49.648;8.640;2022-11-20T03:09:02;99855.63;;;3.38;100.00
46087;BME280;31824;49.648;8.640;2022-11-20T03:12:06;99860.81;;;3.38;100.00
46087;BME280;31824;49.648;8.640;2022-11-20T03:15:09;99866.97;;;3.31;100.00
46087;BME280;31824;49.648;8.640;2022-11-20T03:18:10;99865.34;;;3.32;100.00
46087;BME280;31824;49.648;8.640;2022-11-20T03:21:15;99867.22;;;3.26;100.00
46087;BME280;31824;49.648;8.640;2022-11-20T03:24:16;99862.91;;;3.33;100.00
46087;BME280;31824;49.648;8.640;2022-11-20T03:27:19;99863.31;;;3.29;100.00
46087;BME280;31824;49.648;8.640;2022-11-20T03:30:21;99860.31;;;3.33;100.00
46087;BME280;31824;49.648;8.640;2022-11-20T03:33:30;99857.16;;;3.29;100.00
46087;BME280;31824;49.648;8.640;2022-11-20T03:36:33;99864.56;;;3.33;100.00
46087;BME280;31824;49.648;8.640;2022-11-20T03:39:34;99860.56;;;3.20;100.00
46087;BME280;31824;49.648;8.640;2022-11-20T03:42:37;99869.19;;;3.35;100.00
46087;BME280;31824;49.648;8.640;2022-11-20T03:45:48;99877.34;;;3.01;100.00
46087;BME280;31824;49.648;8.640;2022-11-20T03:48:50;99878.09;;;3.00;100.00
46087;BME280;31824;49.648;8.640;2022-11-20T03:51:52;99880.22;;;3.18;100.00
46087;BME280;31824;49.648;8.640;2022-11-20T03:54:54;99868.72;;;3.16;100.00
46087;BME280;31824;49.648;8.640;2022-11-20T03:57:57;99872.97;;;3.23;100.00
46087;BME280;31824;49.648;8.640;2022-11-20T04:01:04;99874.59;;;2.92;100.00
46087;BME280;31824;49.648;8.640;2022-11-20T04:04:06;99869.16;;;3.05;100.00
46087;BME280;31824;49.648;8.640;2022-11-20T04:07:08;99866.63;;;3.28;100.00
46087;BME280;31824;49.648;8.640;2022-11-20T04:10:10;99867.56;;;3.29;100.00
46087;BME280;31824;49.648;8.640;2022-11-20T04:13:16;99858.69;;;3.27;100.00
46087;BME280;31824;49.648;8.640;2022-11-20T04:16:18;99855.63;;;3.38;100.00
46087;BME280;31824;49.648;8.640;2022-11-20T04:19:20;99856.19;;;3.35;100.00
46087;BME280;31824;49.648;8.640;2022-11-20T04:22:22;99859.81;;;3.52;100.00
46087;BME280;31824;49.648;8.640;2022-11-20T04:25:24;99851.19;;;3.37;100.00
46087;BME280;31824;49.648;8.640;2022-11-20T04:28:27;99848.81;;;3.31;100.00
46087;BME280;31824;49.648;8.640;2022-11-20T04:31:30;99843.22;;;3.35;100.00
46087;BME280;31824;49.648;8.640;2022-11-20T04:34:32;99837.81;;;3.41;100.00
46087;BME280;31824;49.648;8.640;2022-11-20T04:37:34;99830.69;;;3.24;100.00
46087;BME280;31824;49.648;8.640;2022-11-20T04:40:36;99835.34;;;3.19;100.00
46087;BME280;31824;49.648;8.640;2022-11-20T04:43:39;99838.31;;;3.23;100.00
46087;BME280;31824;49.648;8.640;2022-11-20T04:46:41;99834.63;;;3.44;100.00
46087;BME280;31824;49.648;8.640;2022-11-20T04:49:43;99833.84;;;3.52;100.00
46087;BME280;31824;49.648;8.640;2022-11-20T04:52:45;99838.06;;;3.59;100.00
46087;BME280;31824;49.648;8.640;2022-11-20T04:55:47;99833.50;;;3.49;100.00
46087;BME280;31824;49.648;8.640;2022-11-20T04:58:50;99829.91;;;3.55;100.00
46087;BME280;31824;49.648;8.640;2022-11-20T05:01:52;99833.97;;;3.61;100.00
46087;BME280;31824;49.648;8.640;2022-11-20T05:04:54;99827.97;;;3.69;100.00
46087;BME280;31824;49.648;8.640;2022-11-20T05:07:56;99823.34;;;3.66;100.00
46087;BME280;31824;49.648;8.640;2022-11-20T05:11:00;99828.66;;;3.75;100.00
46087;BME280;31824;49.648;8.640;2022-11-20T05:14:03;99825.88;;;3.74;100.00
46087;BME280;31824;49.648;8.640;2022-11-20T05:17:05;99820.69;;;3.74;100.00
46087;BME280;31824;49.648;8.640;2022-11-20T05:20:07;99825.22;;;3.83;100.00
46087;BME280;31824;49.648;8.640;2022-11-20T05:23:09;99826.91;;;3.83;100.00
46087;BME280;31824;49.648;8.640;2022-11-20T05:26:16;99825.84;;;3.81;100.00
46087;BME280;31824;49.648;8.640;2022-11-20T05:29:19;99821.88;;;3.84;100.00
46087;BME280;31824;49.648;8.640;2022-11-20T05:32:21;99819.06;;;3.90;100.00
46087;BME280;31824;49.648;8.640;2022-11-20T05:35:26;99822.03;;;3.93;100.00
46087;BME280;31824;49.648;8.640;2022-11-20T05:38:28;99818.72;;;3.87;100.00
46087;BME280;31824;49.648;8.640;2022-11-20T05:41:29;99817.22;;;3.89;100.00
46087;BME280;31824;49.648;8.640;2022-11-20T05:44:32;99820.91;;;3.91;100.00
46087;BME280;31824;49.648;8.640;2022-11-20T05:47:34;99818.44;;;4.00;100.00
46087;BME280;31824;49.648;8.640;2022-11-20T05:50:36;99812.22;;;4.06;100.00
46087;BME280;31824;49.648;8.640;2022-11-20T05:53:38;99810.41;;;4.05;100.00
46087;BME280;31824;49.648;8.640;2022-11-20T05:56:47;99811.88;;;4.03;100.00
46087;BME280;31824;49.648;8.640;2022-11-20T05:59:50;99814.47;;;4.03;100.00
46087;BME280;31824;49.648;8.640;2022-11-20T06:02:51;99818.22;;;3.82;100.00
46087;BME280;31824;49.648;8.640;2022-11-20T06:05:53;99812.63;;;3.86;100.00
46087;BME280;31824;49.648;8.640;2022-11-20T06:08:55;99810.50;;;3.91;100.00
46087;BME280;31824;49.648;8.640;2022-11-20T06:11:57;99798.63;;;3.93;100.00
46087;BME280;31824;49.648;8.640;2022-11-20T06:15:00;99809.84;;;4.01;100.00
46087;BME280;31824;49.648;8.640;2022-11-20T06:18:02;99802.84;;;4.00;100.00
46087;BME280;31824;49.648;8.640;2022-11-20T06:21:05;99811.78;;;3.95;100.00
46087;BME280;31824;49.648;8.640;2022-11-20T06:24:09;99811.53;;;4.00;100.00
46087;BME280;31824;49.648;8.640;2022-11-20T06:27:11;99809.97;;;4.10;100.00
46087;BME280;31824;49.648;8.640;2022-11-20T06:30:14;99804.50;;;3.99;100.00
46087;BME280;31824;49.648;8.640;2022-11-20T06:33:16;99807.09;;;3.99;100.00
46087;BME280;31824;49.648;8.640;2022-11-20T06:36:19;99812.63;;;4.02;100.00
46087;BME280;31824;49.648;8.640;2022-11-20T06:39:21;99811.63;;;4.09;100.00
46087;BME280;31824;49.648;8.640;2022-11-20T06:42:23;99813.06;;;4.14;100.00
46087;BME280;31824;49.648;8.640;2022-11-20T06:45:26;99823.44;;;3.75;100.00
46087;BME280;31824;49.648;8.640;2022-11-20T06:48:29;99837.41;;;3.68;100.00
46087;BME280;31824;49.648;8.640;2022-11-20T06:51:31;99830.75;;;3.70;100.00
46087;BME280;31824;49.648;8.640;2022-11-20T06:54:32;99823.84;;;3.71;100.00
46087;BME280;31824;49.648;8.640;2022-11-20T06:57:34;99827.16;;;3.77;100.00
46087;BME280;31824;49.648;8.640;2022-11-20T07:00:37;99823.81;;;3.78;100.00
46087;BME280;31824;49.648;8.640;2022-11-20T07:03:39;99821.56;;;3.81;100.00
46087;BME280;31824;49.648;8.640;2022-11-20T07:06:41;99815.44;;;3.81;100.00
46087;BME280;31824;49.648;8.640;2022-11-20T07:09:43;99816.13;;;3.87;100.00
46087;BME280;31824;49.648;8.640;2022-11-20T07:12:49;99831.63;;;3.94;100.00
46087;BME280;31824;49.648;8.640;2022-11-20T07:15:52;99833.66;;;3.97;100.00
46087;BME280;31824;49.648;8.640;2022-11-20T07:18:54;99822.53;;;3.98;100.00
46087;BME280;31824;49.648;8.640;2022-11-20T07:21:55;99827.88;;;3.99;100.00
46087;BME280;31824;49.648;8.640;2022-11-20T07:24:57;99819.50;;;4.02;100.00
46087;BME280;31824;49.648;8.640;2022-11-20T07:27:59;99828.59;;;4.05;100.00
46087;BME280;31824;49.648;8.640;2022-11-20T07:31:03;99822.16;;;4.18;100.00
46087;BME280;31824;49.648;8.640;2022-11-20T07:34:06;99819.47;;;4.25;100.00
46087;BME280;31824;49.648;8.640;2022-11-20T07:37:07;99816.78;;;4.32;100.00
46087;BME280;31824;49.648;8.640;2022-11-20T07:40:11;99820.81;;;4.37;100.00
46087;BME280;31824;49.648;8.640;2022-11-20T07:43:13;99809.50;;;4.37;100.00
46087;BME280;31824;49.648;8.640;2022-11-20T07:46:17;99816.72;;;4.39;100.00
46087;BME280;31824;49.648;8.640;2022-11-20T07:49:19;99820.25;;;4.40;100.00
46087;BME280;31824;49.648;8.640;2022-11-20T07:52:21;99820.09;;;4.54;100.00
46087;BME280;31824;49.648;8.640;2022-11-20T07:55:23;99824.28;;;4.45;100.00
46087;BME280;31824;49.648;8.640;2022-11-20T07:58:24;99832.31;;;4.23;100.00
46087;BME280;31824;49.648;8.640;2022-11-20T08:01:27;99849.00;;;4.02;100.00
46087;BME280;31824;49.648;8.640;2022-11-20T08:04:29;99850.75;;;4.18;100.00
46087;BME280;31824;49.648;8.640;2022-11-20T08:07:35;99858.22;;;4.15;100.00
46087;BME280;31824;49.648;8.640;2022-11-20T08:10:37;99855.81;;;4.09;100.00
46087;BME280;31824;49.648;8.640;2022-11-20T08:13:38;99851.25;;;4.22;100.00
46087;BME280;31824;49.648;8.640;2022-11-20T08:17:00;99858.00;;;4.13;100.00
46087;BME280;31824;49.648;8.640;2022-11-20T08:20:02;99873.22;;;3.94;100.00
46087;BME280;31824;49.648;8.640;2022-11-20T08:23:05;99885.47;;;3.72;100.00
46087;BME280;31824;49.648;8.640;2022-11-20T08:26:07;99880.69;;;3.91;100.00
46087;BME280;31824;49.648;8.640;2022-11-20T08:29:09;99895.06;;;3.50;100.00
46087;BME280;31824;49.648;8.640;2022-11-20T08:32:12;99880.75;;;3.23;100.00
46087;BME280;31824;49.648;8.640;2022-11-20T08:35:13;99885.22;;;3.24;100.00
46087;BME280;31824;49.648;8.640;2022-11-20T08:38:15;99875.44;;;3.45;100.00
46087;BME280;31824;49.648;8.640;2022-11-20T08:41:17;99890.56;;;3.26;100.00
46087;BME280;31824;49.648;8.640;2022-11-20T08:44:25;99882.50;;;3.38;100.00
46087;BME280;31824;49.648;8.640;2022-11-20T08:47:28;99900.16;;;3.34;100.00
46087;BME280;31824;49.648;8.640;2022-11-20T08:50:30;99881.72;;;3.77;100.00
46087;BME280;31824;49.648;8.640;2022-11-20T08:53:35;99889.50;;;3.54;100.00
46087;BME280;31824;49.648;8.640;2022-11-20T08:56:36;99883.41;;;4.00;100.00
46087;BME280;31824;49.648;8.640;2022-11-20T08:59:38;99887.72;;;4.15;100.00
46087;BME280;31824;49.648;8.640;2022-11-20T09:03:02;99891.88;;;3.83;100.00
46087;BME280;31824;49.648;8.640;2022-11-20T09:06:05;99905.81;;;3.53;100.00
46087;BME280;31824;49.648;8.640;2022-11-20T09:09:07;99895.94;;;3.88;100.00
46087;BME280;31824;49.648;8.640;2022-11-20T09:12:09;99901.47;;;3.91;100.00
46087;BME280;31824;49.648;8.640;2022-11-20T09:15:10;99901.41;;;3.98;100.00
46087;BME280;31824;49.648;8.640;2022-11-20T09:18:14;99897.72;;;4.19;100.00
46087;BME280;31824;49.648;8.640;2022-11-20T09:21:16;99897.78;;;4.12;100.00
46087;BME280;31824;49.648;8.640;2022-11-20T09:24:18;99905.00;;;4.15;100.00
46087;BME280;31824;49.648;8.640;2022-11-20T09:27:20;99904.88;;;4.29;100.00
46087;BME280;31824;49.648;8.640;2022-11-20T09:30:23;99890.13;;;4.37;100.00
46087;BME280;31824;49.648;8.640;2022-11-20T09:33:26;99903.75;;;4.50;100.00
46087;BME280;31824;49.648;8.640;2022-11-20T09:36:27;99901.28;;;4.36;100.00
46087;BME280;31824;49.648;8.640;2022-11-20T09:39:29;99898.66;;;4.36;100.00
46087;BME280;31824;49.648;8.640;2022-11-20T09:42:37;99893.22;;;4.42;100.00
46087;BME280;31824;49.648;8.640;2022-11-20T09:45:53;99898.59;;;4.43;100.00
46087;BME280;31824;49.648;8.640;2022-11-20T09:49:14;99902.38;;;4.54;100.00
46087;BME280;31824;49.648;8.640;2022-11-20T09:52:22;99915.97;;;4.51;100.00
46087;BME280;31824;49.648;8.640;2022-11-20T09:55:29;99909.03;;;4.59;100.00
46087;BME280;31824;49.648;8.640;2022-11-20T09:58:38;99903.34;;;4.54;100.00
46087;BME280;31824;49.648;8.640;2022-11-20T10:01:41;99906.00;;;4.63;100.00
46087;BME280;31824;49.648;8.640;2022-11-20T10:04:49;99916.34;;;4.70;100.00
46087;BME280;31824;49.648;8.640;2022-11-20T10:08:01;99911.81;;;4.77;100.00
46087;BME280;31824;49.648;8.640;2022-11-20T10:11:11;99899.81;;;4.70;100.00
46087;BME280;31824;49.648;8.640;2022-11-20T10:14:26;99923.16;;;4.61;100.00
46087;BME280;31824;49.648;8.640;2022-11-20T10:17:52;99905.75;;;4.69;100.00
46087;BME280;31824;49.648;8.640;2022-11-20T10:21:05;99903.44;;;4.79;100.00
46087;BME280;31824;49.648;8.640;2022-11-20T10:24:34;99895.88;;;4.73;100.00
46087;BME280;31824;49.648;8.640;2022-11-20T10:28:09;99893.63;;;4.77;100.00
46087;BME280;31824;49.648;8.640;2022-11-20T10:31:21;99890.75;;;4.82;100.00
46087;BME280;31824;49.648;8.640;2022-11-20T10:34:31;99891.28;;;4.87;100.00
46087;BME280;31824;49.648;8.640;2022-11-20T10:37:37;99878.75;;;4.92;100.00
46087;BME280;31824;49.648;8.640;2022-11-20T10:40:44;99883.22;;;4.93;100.00
46087;BME280;31824;49.648;8.640;2022-11-20T10:43:51;99874.88;;;4.88;100.00
46087;BME280;31824;49.648;8.640;2022-11-20T10:46:54;99875.31;;;5.00;100.00
46087;BME280;31824;49.648;8.640;2022-11-20T10:50:01;99879.97;;;5.11;100.00
46087;BME280;31824;49.648;8.640;2022-11-20T10:53:16;99886.13;;;5.12;100.00
46087;BME280;31824;49.648;8.640;2022-11-20T10:56:26;99876.56;;;5.03;100.00
46087;BME280;31824;49.648;8.640;2022-11-20T10:59:41;99879.06;;;5.11;100.00
46087;BME280;31824;49.648;8.640;2022-11-20T11:02:47;99872.28;;;5.04;100.00
46087;BME280;31824;49.648;8.640;2022-11-20T11:05:51;99870.94;;;5.07;100.00
46087;BME280;31824;49.648;8.640;2022-11-20T11:09:00;99871.78;;;4.99;100.00
46087;BME280;31824;49.648;8.640;2022-11-20T11:12:07;99863.56;;;5.03;100.00
46087;BME280;31824;49.648;8.640;2022-11-20T11:15:13;99862.00;;;5.21;100.00
46087;BME280;31824;49.648;8.640;2022-11-20T11:18:24;99864.50;;;5.29;100.00
46087;BME280;31824;49.648;8.640;2022-11-20T11:21:26;99838.25;;;5.43;100.00
46087;BME280;31824;49.648;8.640;2022-11-20T11:24:30;99851.63;;;5.30;100.00
46087;BME280;31824;49.648;8.640;2022-11-20T11:27:47;99834.09;;;5.36;100.00
46087;BME280;31824;49.648;8.640;2022-11-20T11:30:49;99832.78;;;5.49;100.00
46087;BME280;31824;49.648;8.640;2022-11-20T11:33:51;99832.03;;;5.50;100.00
46087;BME280;31824;49.648;8.640;2022-11-20T11:36:56;99833.06;;;5.43;100.00
46087;BME280;31824;49.648;8.640;2022-11-20T11:40:00;99835.34;;;5.40;100.00
46087;BME280;31824;49.648;8.640;2022-11-20T11:43:24;99827.56;;;5.49;100.00
46087;BME280;31824;49.648;8.640;2022-11-20T11:46:51;99824.81;;;5.47;100.00
46087;BME280;31824;49.648;8.640;2022-11-20T11:50:15;99823.91;;;5.47;100.00
46087;BME280;31824;49.648;8.640;2022-11-20T11:53:19;99813.19;;;5.52;100.00
46087;BME280;31824;49.648;8.640;2022-11-20T11:56:24;99822.84;;;5.53;100.00
46087;BME280;31824;49.648;8.640;2022-11-20T11:59:27;99818.06;;;5.49;100.00
46087;BME280;31824;49.648;8.640;2022-11-20T12:02:36;99813.78;;;5.50;100.00
46087;BME280;31824;49.648;8.640;2022-11-20T12:05:43;99809.22;;;5.56;100.00
46087;BME280;31824;49.648;8.640;2022-11-20T12:08:49;99796.78;;;5.53;100.00
46087;BME280;31824;49.648;8.640;2022-11-20T12:11:55;99812.47;;;5.62;100.00
46087;BME280;31824;49.648;8.640;2022-11-20T12:15:00;99808.97;;;5.62;100.00
46087;BME280;31824;49.648;8.640;2022-11-20T12:18:19;99817.25;;;5.66;100.00
46087;BME280;31824;49.648;8.640;2022-11-20T12:21:29;99806.94;;;5.59;100.00
46087;BME280;31824;49.648;8.640;2022-11-20T12:24:50;99812.16;;;5.59;100.00
46087;BME280;31824;49.648;8.640;2022-11-20T12:31:47;99805.34;;;5.77;100.00
46087;BME280;31824;49.648;8.640;2022-11-20T12:35:00;99803.47;;;6.01;100.00
46087;BME280;31824;49.648;8.640;2022-11-20T12:38:39;99801.81;;;6.01;100.00
46087;BME280;31824;49.648;8.640;2022-11-20T12:42:05;99801.66;;;6.08;100.00
46087;BME280;31824;49.648;8.640;2022-11-20T12:45:52;99791.25;;;6.08;100.00
46087;BME280;31824;49.648;8.640;2022-11-20T12:49:08;99796.00;;;6.13;100.00
46087;BME280;31824;49.648;8.640;2022-11-20T12:52:23;99786.47;;;6.04;100.00
46087;BME280;31824;49.648;8.640;2022-11-20T12:55:40;99781.56;;;6.07;100.00
46087;BME280;31824;49.648;8.640;2022-11-20T12:58:48;99784.53;;;6.28;100.00
46087;BME280;31824;49.648;8.640;2022-11-20T13:02:00;99779.00;;;6.25;100.00
46087;BME280;31824;49.648;8.640;2022-11-20T13:05:27;99781.66;;;6.34;100.00
46087;BME280;31824;49.648;8.640;2022-11-20T13:08:34;99776.13;;;6.39;100.00
46087;BME280;31824;49.648;8.640;2022-11-20T13:11:40;99780.25;;;6.37;100.00
46087;BME280;31824;49.648;8.640;2022-11-20T13:14:47;99770.56;;;6.36;100.00
46087;BME280;31824;49.648;8.640;2022-11-20T13:17:54;99766.00;;;6.34;100.00
46087;BME280;31824;49.648;8.640;2022-11-20T13:20:59;99768.75;;;6.35;100.00
46087;BME280;31824;49.648;8.640;2022-11-20T13:24:04;99765.34;;;6.36;100.00
46087;BME280;31824;49.648;8.640;2022-11-20T13:27:18;99751.56;;;6.37;100.00
46087;BME280;31824;49.648;8.640;2022-11-20T13:30:23;99747.88;;;6.35;100.00
46087;BME280;31824;49.648;8.640;2022-11-20T13:33:30;99743.28;;;6.33;100.00
46087;BME280;31824;49.648;8.640;2022-11-20T13:36:33;99739.16;;;6.44;100.00
46087;BME280;31824;49.648;8.640;2022-11-20T13:39:37;99730.69;;;6.37;100.00
46087;BME280;31824;49.648;8.640;2022-11-20T13:42:43;99734.06;;;6.36;100.00
46087;BME280;31824;49.648;8.640;2022-11-20T13:45:55;99732.09;;;6.60;100.00
46087;BME280;31824;49.648;8.640;2022-11-20T13:48:57;99718.72;;;6.83;100.00
46087;BME280;31824;49.648;8.640;2022-11-20T13:52:22;99725.63;;;6.91;100.00
46087;BME280;31824;49.648;8.640;2022-11-20T13:55:35;99718.09;;;7.03;100.00
46087;BME280;31824;49.648;8.640;2022-11-20T13:58:51;99712.66;;;7.28;100.00
46087;BME280;31824;49.648;8.640;2022-11-20T14:01:55;99707.84;;;7.33;100.00
46087;BME280;31824;49.648;8.640;2022-11-20T14:04:58;99701.69;;;7.41;100.00
46087;BME280;31824;49.648;8.640;2022-11-20T14:08:04;99717.06;;;7.38;100.00
46087;BME280;31824;49.648;8.640;2022-11-20T14:11:15;99709.31;;;7.57;100.00
46087;BME280;31824;49.648;8.640;2022-11-20T14:14:19;99705.72;;;7.65;100.00
46087;BME280;31824;49.648;8.640;2022-11-20T14:17:28;99697.16;;;7.57;100.00
46087;BME280;31824;49.648;8.640;2022-11-20T14:20:31;99705.22;;;7.41;100.00
46087;BME280;31824;49.648;8.640;2022-11-20T14:23:35;99691.41;;;7.34;100.00
46087;BME280;31824;49.648;8.640;2022-11-20T14:26:37;99694.03;;;7.34;100.00
46087;BME280;31824;49.648;8.640;2022-11-20T14:29:43;99690.66;;;7.26;100.00
46087;BME280;31824;49.648;8.640;2022-11-20T14:32:47;99674.81;;;7.33;100.00
46087;BME280;31824;49.648;8.640;2022-11-20T14:35:50;99684.84;;;7.20;100.00
46087;BME280;31824;49.648;8.640;2022-11-20T14:38:54;99681.97;;;7.17;100.00
46087;BME280;31824;49.648;8.640;2022-11-20T14:41:56;99673.34;;;7.09;100.00
46087;BME280;31824;49.648;8.640;2022-11-20T14:44:59;99670.47;;;6.97;100.00
46087;BME280;31824;49.648;8.640;2022-11-20T14:48:01;99668.94;;;6.99;100.00
46087;BME280;31824;49.648;8.640;2022-11-20T14:51:03;99679.38;;;6.99;100.00
46087;BME280;31824;49.648;8.640;2022-11-20T14:54:10;99665.25;;;6.97;100.00
46087;BME280;31824;49.648;8.640;2022-11-20T14:57:24;99663.88;;;7.01;100.00
46087;BME280;31824;49.648;8.640;2022-11-20T15:00:26;99660.59;;;7.12;100.00
46087;BME280;31824;49.648;8.640;2022-11-20T15:03:32;99665.38;;;7.07;100.00
46087;BME280;31824;49.648;8.640;2022-11-20T15:06:35;99664.56;;;7.17;100.00
46087;BME280;31824;49.648;8.640;2022-11-20T15:09:38;99654.47;;;7.12;100.00
46087;BME280;31824;49.648;8.640;2022-11-20T15:12:46;99659.84;;;7.04;100.00
46087;BME280;31824;49.648;8.640;2022-11-20T15:15:50;99654.31;;;7.01;100.00
46087;BME280;31824;49.648;8.640;2022-11-20T15:18:52;99652.94;;;6.96;100.00
46087;BME280;31824;49.648;8.640;2022-11-20T15:21:54;99661.09;;;6.99;100.00
46087;BME280;31824;49.648;8.640;2022-11-20T15:24:57;99654.59;;;7.04;100.00
46087;BME280;31824;49.648;8.640;2022-11-20T15:27:59;99654.13;;;7.08;100.00
46087;BME280;31824;49.648;8.640;2022-11-20T15:31:01;99643.53;;;7.07;100.00
46087;BME280;31824;49.648;8.640;2022-11-20T15:34:05;99642.22;;;7.02;100.00
46087;BME280;31824;49.648;8.640;2022-11-20T15:37:08;99641.25;;;7.01;100.00
46087;BME280;31824;49.648;8.640;2022-11-20T15:40:12;99648.78;;;7.07;100.00
46087;BME280;31824;49.648;8.640;2022-11-20T15:43:14;99635.28;;;7.02;100.00
46087;BME280;31824;49.648;8.640;2022-11-20T15:46:16;99631.75;;;7.02;100.00
46087;BME280;31824;49.648;8.640;2022-11-20T15:49:21;99633.94;;;6.88;100.00
46087;BME280;31824;49.648;8.640;2022-11-20T15:52:25;99632.41;;;6.82;100.00
46087;BME280;31824;49.648;8.640;2022-11-20T15:55:32;99638.59;;;6.73;100.00
46087;BME280;31824;49.648;8.640;2022-11-20T15:58:34;99629.66;;;6.80;100.00
46087;BME280;31824;49.648;8.640;2022-11-20T16:01:35;99626.16;;;6.71;100.00
46087;BME280;31824;49.648;8.640;2022-11-20T16:04:38;99627.38;;;6.66;100.00
46087;BME280;31824;49.648;8.640;2022-11-20T16:07:41;99618.63;;;6.65;100.00
46087;BME280;31824;49.648;8.640;2022-11-20T16:10:44;99617.41;;;6.62;100.00
46087;BME280;31824;49.648;8.640;2022-11-20T16:13:46;99612.47;;;6.65;100.00
46087;BME280;31824;49.648;8.640;2022-11-20T16:17:06;99605.59;;;6.65;100.00
46087;BME280;31824;49.648;8.640;2022-11-20T16:20:10;99609.41;;;6.69;100.00
46087;BME280;31824;49.648;8.640;2022-11-20T16:23:12;99609.53;;;6.79;100.00
46087;BME280;31824;49.648;8.640;2022-11-20T16:26:16;99603.84;;;6.74;100.00